createdAt,value
2019-04-25T00:01:11.560Z,62.80
2019-04-25T00:03:55.200Z,63.20
2019-04-25T00:06:39.183Z,63.70
2019-04-25T00:09:22.895Z,63.10
2019-04-25T00:12:02.961Z,62.60
2019-04-25T00:14:45.810Z,63.30
2019-04-25T00:17:27.155Z,64.10
2019-04-25T00:20:09.468Z,63.20
2019-04-25T00:22:55.727Z,62.70
2019-04-25T00:25:54.284Z,62.00
2019-04-25T00:28:37.345Z,61.60
2019-04-25T00:31:19.778Z,61.60
2019-04-25T00:34:08.045Z,62.10
2019-04-25T00:36:53.092Z,62.00
2019-04-25T00:39:35.724Z,62.10
2019-04-25T00:42:14.452Z,62.00
2019-04-25T00:44:55.914Z,61.60
2019-04-25T00:47:42.421Z,61.90
2019-04-25T00:50:24.825Z,61.60
2019-04-25T00:53:07.072Z,61.70
2019-04-25T00:55:52.450Z,61.80
2019-04-25T00:58:46.741Z,61.90
2019-04-25T01:01:46.511Z,61.70
2019-04-25T01:04:28.110Z,61.40
2019-04-25T01:07:09.878Z,61.30
2019-04-25T01:09:54.509Z,61.70
2019-04-25T01:12:39.485Z,61.90
2019-04-25T01:15:21.671Z,61.70
2019-04-25T01:18:02.758Z,61.80
2019-04-25T01:20:43.430Z,61.80
2019-04-25T01:23:25.348Z,61.20
2019-04-25T01:26:08.487Z,62.00
2019-04-25T01:28:51.919Z,61.30
2019-04-25T01:31:33.601Z,61.00
2019-04-25T01:34:14.474Z,61.10
2019-04-25T01:37:01.056Z,60.80
2019-04-25T01:39:48.894Z,60.70
2019-04-25T01:42:50.333Z,60.80
2019-04-25T01:45:35.141Z,60.90
2019-04-25T01:48:13.737Z,60.90
2019-04-25T01:50:56.529Z,61.10
2019-04-25T01:53:41.352Z,60.70
2019-04-25T01:56:22.976Z,61.20
2019-04-25T01:59:05.101Z,60.70
2019-04-25T02:01:44.393Z,60.20
2019-04-25T02:04:29.355Z,60.40
2019-04-25T02:07:10.573Z,60.40
2019-04-25T02:10:00.058Z,60.20
2019-04-25T02:12:47.778Z,60.50
2019-04-25T02:15:33.318Z,60.20
2019-04-25T02:18:16.305Z,60.50
2019-04-25T02:21:01.261Z,60.30
2019-04-25T02:23:48.296Z,59.80
2019-04-25T02:26:34.383Z,60.20
2019-04-25T02:29:16.693Z,59.50
2019-04-25T02:31:59.758Z,59.30
2019-04-25T02:34:38.267Z,59.50
2019-04-25T02:37:25.880Z,59.50
2019-04-25T02:40:08.127Z,59.20
2019-04-25T02:42:50.406Z,59.20
2019-04-25T02:45:45.768Z,59.30
2019-04-25T02:48:40.499Z,58.90
2019-04-25T02:51:38.521Z,59.30
2019-04-25T02:54:19.209Z,58.80
2019-04-25T02:56:59.842Z,58.80
2019-04-25T02:59:41.985Z,58.30
2019-04-25T03:02:24.367Z,58.30
2019-04-25T03:05:06.049Z,58.30
2019-04-25T03:07:47.210Z,57.90
2019-04-25T03:10:32.605Z,58.90
2019-04-25T03:13:15.005Z,57.90
2019-04-25T03:16:00.565Z,58.30
2019-04-25T03:19:02.886Z,57.60
2019-04-25T03:21:45.651Z,58.40
2019-04-25T03:24:25.017Z,57.90
2019-04-25T03:27:05.886Z,57.20
2019-04-25T03:29:47.946Z,57.20
2019-04-25T03:32:31.070Z,57.30
2019-04-25T03:35:09.934Z,56.70
2019-04-25T03:37:51.477Z,56.00
2019-04-25T03:40:35.523Z,56.20
2019-04-25T03:43:16.484Z,55.60
2019-04-25T03:46:00.603Z,55.40
2019-04-25T03:48:41.222Z,55.60
2019-04-25T03:51:24.110Z,55.40
2019-04-25T03:54:07.456Z,54.80
2019-04-25T03:56:53.560Z,54.70
2019-04-25T03:59:30.103Z,54.80
2019-04-25T04:02:15.193Z,54.40
2019-04-25T04:04:56.674Z,54.10
2019-04-25T04:07:38.891Z,54.20
2019-04-25T04:10:23.501Z,54.10
2019-04-25T04:13:07.145Z,54.30
2019-04-25T04:15:50.497Z,53.80
2019-04-25T04:18:41.408Z,53.80
2019-04-25T04:21:30.036Z,53.80
2019-04-25T04:24:19.526Z,53.80
2019-04-25T04:27:19.032Z,53.50
2019-04-25T04:30:01.071Z,53.70
2019-04-25T04:32:44.061Z,53.60
2019-04-25T04:35:27.201Z,53.40
2019-04-25T04:38:09.823Z,53.20
2019-04-25T04:41:01.298Z,52.90
2019-04-25T04:43:44.684Z,52.70
2019-04-25T04:46:30.387Z,52.90
2019-04-25T04:49:15.295Z,52.80
2019-04-25T04:51:59.954Z,52.20
2019-04-25T04:54:49.530Z,52.40
2019-04-25T04:57:34.146Z,51.80
2019-04-25T05:00:15.512Z,51.40
2019-04-25T05:03:04.467Z,51.50
2019-04-25T05:05:55.115Z,51.40
2019-04-25T05:08:40.332Z,50.70
2019-04-25T05:11:23.866Z,50.60
2019-04-25T05:14:11.847Z,50.00
2019-04-25T05:17:05.931Z,50.30
2019-04-25T05:19:47.398Z,50.00
2019-04-25T05:22:33.271Z,50.20
2019-04-25T05:25:19.122Z,49.80
2019-04-25T05:28:03.082Z,50.30
2019-04-25T05:30:54.361Z,50.20
2019-04-25T05:33:38.697Z,49.60
2019-04-25T05:36:23.882Z,49.70
2019-04-25T05:39:05.451Z,49.60
2019-04-25T05:42:04.186Z,49.90
2019-04-25T05:44:49.461Z,49.70
2019-04-25T05:47:30.284Z,49.50
2019-04-25T05:50:10.228Z,49.20
2019-04-25T05:52:51.022Z,49.30
2019-04-25T05:55:37.252Z,49.20
2019-04-25T05:58:20.390Z,49.40
2019-04-25T06:01:05.163Z,49.00
2019-04-25T06:03:49.248Z,49.00
2019-04-25T06:06:34.956Z,49.10
2019-04-25T06:09:26.879Z,49.00
2019-04-25T06:12:36.935Z,49.00
2019-04-25T06:15:18.663Z,49.60
2019-04-25T06:18:30.664Z,48.60
2019-04-25T06:21:23.603Z,48.80
2019-04-25T06:24:19.319Z,48.80
2019-04-25T06:30:37.733Z,48.80
2019-04-25T06:33:29.077Z,48.10
2019-04-25T06:36:11.465Z,47.70
2019-04-25T06:38:52.310Z,48.10
2019-04-25T06:41:37.013Z,47.90
2019-04-25T06:44:34.599Z,48.50
2019-04-25T06:47:31.928Z,47.40
2019-04-25T06:50:17.327Z,47.70
2019-04-25T06:53:00.709Z,47.80
2019-04-25T06:55:45.600Z,48.20
2019-04-25T06:58:28.472Z,47.90
2019-04-25T07:01:13.676Z,47.70
2019-04-25T07:04:00.556Z,48.20
2019-04-25T07:06:41.491Z,48.00
2019-04-25T07:09:24.429Z,47.30
2019-04-25T07:12:10.290Z,47.40
2019-04-25T07:14:53.811Z,47.50
2019-04-25T07:17:37.135Z,47.20
2019-04-25T07:20:21.230Z,47.20
2019-04-25T07:23:13.577Z,47.20
2019-04-25T07:26:26.858Z,47.10
2019-04-25T07:29:20.777Z,47.20
2019-04-25T07:32:17.134Z,46.70
2019-04-25T07:34:56.913Z,46.70
2019-04-25T07:37:41.593Z,46.20
2019-04-25T07:40:21.149Z,46.20
2019-04-25T07:43:06.299Z,46.10
2019-04-25T07:45:49.636Z,45.80
2019-04-25T07:48:33.720Z,45.20
2019-04-25T07:51:18.568Z,45.40
2019-04-25T07:54:10.055Z,45.40
2019-04-25T07:56:46.456Z,45.20
2019-04-25T07:59:30.989Z,45.10
2019-04-25T08:02:13.266Z,45.10
2019-04-25T08:04:58.250Z,45.30
2019-04-25T08:07:43.587Z,45.10
2019-04-25T08:10:24.906Z,45.30
2019-04-25T08:13:11.572Z,45.00
2019-04-25T08:16:00.485Z,45.00
2019-04-25T08:18:45.309Z,44.80
2019-04-25T08:21:26.537Z,44.90
2019-04-25T08:24:10.992Z,44.80
2019-04-25T08:26:49.672Z,45.10
2019-04-25T08:29:36.343Z,45.20
2019-04-25T08:32:15.567Z,45.20
2019-04-25T08:34:59.387Z,45.20
2019-04-25T08:37:44.074Z,45.40
2019-04-25T08:40:25.416Z,45.20
2019-04-25T08:43:06.480Z,45.30
2019-04-25T08:45:48.602Z,45.40
2019-04-25T08:48:33.647Z,45.50
2019-04-25T08:51:18.690Z,44.30
2019-04-25T08:54:03.740Z,43.90
2019-04-25T08:56:45.326Z,43.40
2019-04-25T08:59:47.189Z,43.60
2019-04-25T09:02:40.626Z,43.80
2019-04-25T09:05:37.776Z,43.60
2019-04-25T09:08:23.990Z,43.20
2019-04-25T09:11:04.376Z,43.10
2019-04-25T09:13:45.419Z,43.30
2019-04-25T09:16:28.581Z,43.30
2019-04-25T09:19:11.234Z,43.10
2019-04-25T09:21:50.599Z,43.20
2019-04-25T09:24:31.775Z,43.20
2019-04-25T09:27:13.442Z,43.50
2019-04-25T09:29:55.481Z,43.50
2019-04-25T09:32:37.294Z,43.90
2019-04-25T09:35:20.175Z,43.70
2019-04-25T09:38:06.745Z,43.80
2019-04-25T09:40:48.532Z,44.00
2019-04-25T09:43:31.056Z,44.40
2019-04-25T09:46:17.828Z,44.40
2019-04-25T09:49:15.267Z,44.50
2019-04-25T09:52:24.358Z,44.10
2019-04-25T09:55:27.191Z,44.20
2019-04-25T09:58:17.674Z,44.50
2019-04-25T10:01:00.832Z,44.40
2019-04-25T10:03:43.549Z,44.70
2019-04-25T10:06:26.321Z,44.90
2019-04-25T10:09:08.938Z,44.70
2019-04-25T10:11:51.614Z,44.80
2019-04-25T10:15:11.733Z,45.10
2019-04-25T10:17:52.983Z,45.10
2019-04-25T10:20:49.476Z,45.30
2019-04-25T10:23:34.651Z,45.50
2019-04-25T10:26:17.819Z,45.20
2019-04-25T10:29:00.229Z,45.40
2019-04-25T10:31:44.314Z,45.40
2019-04-25T10:34:27.933Z,45.60
2019-04-25T10:37:09.720Z,45.50
2019-04-25T10:39:55.552Z,45.70
2019-04-25T10:42:44.214Z,46.00
2019-04-25T10:45:31.248Z,46.30
2019-04-25T10:48:19.214Z,46.30
2019-04-25T10:51:04.173Z,46.40
2019-04-25T10:53:46.928Z,46.70
2019-04-25T10:56:33.505Z,47.10
2019-04-25T10:59:16.814Z,47.30
2019-04-25T11:01:57.129Z,47.00
2019-04-25T11:04:51.499Z,47.10
2019-04-25T11:07:37.582Z,47.40
2019-04-25T11:10:23.483Z,47.60
2019-04-25T11:13:05.339Z,47.80
2019-04-25T11:15:45.980Z,47.70
2019-04-25T11:18:29.575Z,47.70
2019-04-25T11:21:13.810Z,47.80
2019-04-25T11:23:57.128Z,48.20
2019-04-25T11:26:40.555Z,48.10
2019-04-25T11:29:27.434Z,48.60
2019-04-25T11:32:13.220Z,48.80
2019-04-25T11:35:05.235Z,48.80
2019-04-25T11:37:55.498Z,48.90
2019-04-25T11:40:51.532Z,48.60
2019-04-25T11:43:43.493Z,48.60
2019-04-25T11:46:24.172Z,48.70
2019-04-25T11:49:08.489Z,48.20
2019-04-25T11:51:56.264Z,48.20
2019-04-25T11:54:38.855Z,48.30
2019-04-25T11:57:23.908Z,48.50
2019-04-25T12:00:21.568Z,48.60
2019-04-25T12:02:54.951Z,48.80
2019-04-25T12:05:42.695Z,48.70
2019-04-25T12:08:37.466Z,49.10
2019-04-25T12:11:25.962Z,49.20
2019-04-25T12:14:11.219Z,49.00
2019-04-25T12:16:56.277Z,49.10
2019-04-25T12:19:39.418Z,49.80
2019-04-25T12:22:24.824Z,49.30
2019-04-25T12:25:08.835Z,49.50
2019-04-25T12:27:55.224Z,50.20
2019-04-25T12:30:47.406Z,49.70
2019-04-25T12:33:32.170Z,49.70
2019-04-25T12:36:17.320Z,50.20
2019-04-25T12:39:01.083Z,49.90
2019-04-25T12:41:48.971Z,49.80
2019-04-25T12:44:51.511Z,50.10
2019-04-25T12:47:38.838Z,50.30
2019-04-25T12:50:19.522Z,50.50
2019-04-25T12:53:03.639Z,50.40
2019-04-25T12:55:45.343Z,50.70
2019-04-25T12:58:27.750Z,51.50
2019-04-25T13:01:24.815Z,51.30
2019-04-25T13:04:14.295Z,51.20
2019-04-25T13:07:05.281Z,51.80
2019-04-25T13:09:55.416Z,51.70
2019-04-25T13:12:37.274Z,51.90
2019-04-25T13:15:21.367Z,51.80
2019-04-25T13:18:20.397Z,52.40
2019-04-25T13:21:11.061Z,51.90
2019-04-25T13:23:58.072Z,52.20
2019-04-25T13:26:48.674Z,52.00
2019-04-25T13:29:58.767Z,52.40
2019-04-25T13:32:57.645Z,52.60
2019-04-25T13:36:02.916Z,52.70
2019-04-25T13:38:50.584Z,53.50
2019-04-25T13:41:33.712Z,53.30
2019-04-25T13:44:26.515Z,53.50
2019-04-25T13:47:14.000Z,53.30
2019-04-25T13:50:03.757Z,53.40
2019-04-25T13:52:54.492Z,53.30
2019-04-25T13:55:42.724Z,53.40
2019-04-25T13:58:30.524Z,53.60
2019-04-25T14:04:35.410Z,53.70
2019-04-25T14:07:22.958Z,54.40
2019-04-25T14:10:23.410Z,53.80
2019-04-25T14:13:28.406Z,53.80
2019-04-25T14:16:25.367Z,53.80
2019-04-25T14:19:25.259Z,53.70
2019-04-25T14:25:12.978Z,53.50
2019-04-25T14:28:17.210Z,53.50
2019-04-25T14:30:59.990Z,53.70
2019-04-25T14:34:03.282Z,53.80
2019-04-25T14:36:51.835Z,54.00
2019-04-25T14:39:44.042Z,54.00
2019-04-25T14:42:26.933Z,54.20
2019-04-25T14:45:13.448Z,54.20
2019-04-25T14:47:54.746Z,54.30
2019-04-25T14:50:40.880Z,54.50
2019-04-25T14:53:30.896Z,54.50
2019-04-25T14:56:25.887Z,54.50
2019-04-25T14:59:11.214Z,54.70
2019-04-25T15:01:56.122Z,54.60
2019-04-25T15:04:40.189Z,54.20
2019-04-25T15:07:37.723Z,54.00
2019-04-25T15:10:34.582Z,54.20
2019-04-25T15:13:26.036Z,54.50
2019-04-25T15:16:29.042Z,54.70
2019-04-25T15:19:18.049Z,54.30
2019-04-25T15:22:07.288Z,54.90
2019-04-25T15:24:54.089Z,54.60
2019-04-25T15:27:42.569Z,54.90
2019-04-25T15:30:35.620Z,55.00
2019-04-25T15:33:31.106Z,55.10
2019-04-25T15:36:37.710Z,55.10
2019-04-25T15:39:45.020Z,55.00
2019-04-25T15:42:59.251Z,55.00
2019-04-25T15:46:29.021Z,55.10
2019-04-25T15:49:43.843Z,55.10
2019-04-25T15:56:15.543Z,55.30
2019-04-25T15:59:21.067Z,55.10
2019-04-25T16:02:08.151Z,55.20
2019-04-25T16:04:51.737Z,55.30
2019-04-25T16:07:35.287Z,56.00
2019-04-25T16:10:19.394Z,55.50
2019-04-25T16:13:02.847Z,56.20
2019-04-25T16:15:45.539Z,55.80
2019-04-25T16:18:27.367Z,55.70
2019-04-25T16:21:12.667Z,55.80
2019-04-25T16:23:59.930Z,55.90
2019-04-25T16:26:39.947Z,56.10
2019-04-25T16:29:27.653Z,56.20
2019-04-25T16:32:20.611Z,56.10
2019-04-25T16:35:04.414Z,56.10
2019-04-25T16:37:46.802Z,56.10
2019-04-25T16:40:31.886Z,56.20
2019-04-25T16:43:34.080Z,56.10
2019-04-25T16:46:27.758Z,56.10
2019-04-25T16:49:14.916Z,56.30
2019-04-25T16:51:59.200Z,56.40
2019-04-25T16:54:44.317Z,56.50
2019-04-25T16:57:32.700Z,56.60
2019-04-25T17:00:15.707Z,56.70
2019-04-25T17:02:55.682Z,56.90
2019-04-25T17:05:40.119Z,56.70
2019-04-25T17:08:26.020Z,56.60
2019-04-25T17:11:09.016Z,56.70
2019-04-25T17:14:01.859Z,56.60
2019-04-25T17:17:04.165Z,56.60
2019-04-25T17:20:04.657Z,56.60
2019-04-25T17:22:49.262Z,56.60
2019-04-25T17:25:31.259Z,56.50
2019-04-25T17:28:15.103Z,56.50
2019-04-25T17:31:06.334Z,56.50
2019-04-25T17:34:17.109Z,56.50
2019-04-25T17:37:18.007Z,56.70
2019-04-25T17:40:02.021Z,56.90
2019-04-25T17:42:48.830Z,57.00
2019-04-25T17:45:34.823Z,57.10
2019-04-25T17:48:16.193Z,57.30
2019-04-25T17:50:59.329Z,57.40
2019-04-25T17:53:43.877Z,57.30
2019-04-25T17:56:28.164Z,57.30
2019-04-25T17:59:09.525Z,58.10
2019-04-25T18:01:54.708Z,57.50
2019-04-25T18:04:44.617Z,57.50
2019-04-25T18:07:31.089Z,57.50
2019-04-25T18:10:12.851Z,57.60
2019-04-25T18:12:56.090Z,57.60
2019-04-25T18:16:01.852Z,57.30
2019-04-25T18:19:01.873Z,57.00
2019-04-25T18:21:45.241Z,56.70
2019-04-25T18:24:59.776Z,56.40
2019-04-25T18:27:54.399Z,56.20
2019-04-25T18:30:41.167Z,56.20
2019-04-25T18:33:34.901Z,56.40
2019-04-25T18:36:38.642Z,56.40
2019-04-25T18:39:28.946Z,56.60
2019-04-25T18:42:29.637Z,56.70
2019-04-25T18:45:10.558Z,56.90
2019-04-25T18:47:51.123Z,56.80
2019-04-25T18:50:36.257Z,56.40
2019-04-25T18:53:39.211Z,56.30
2019-04-25T18:56:38.955Z,56.20
2019-04-25T18:59:40.335Z,56.30
2019-04-25T19:02:39.770Z,56.40
2019-04-25T19:05:39.771Z,57.10
2019-04-25T19:08:24.103Z,56.50
2019-04-25T19:11:09.783Z,56.50
2019-04-25T19:13:51.944Z,56.70
2019-04-25T19:16:34.295Z,56.30
2019-04-25T19:19:18.945Z,56.00
2019-04-25T19:22:01.208Z,56.20
2019-04-25T19:24:47.697Z,56.30
2019-04-25T19:27:32.475Z,56.50
2019-04-25T19:30:15.005Z,56.50
2019-04-25T19:32:54.402Z,56.50
2019-04-25T19:35:36.381Z,56.60
2019-04-25T19:38:20.228Z,56.40
2019-04-25T19:41:18.765Z,56.70
2019-04-25T19:44:08.545Z,56.40
2019-04-25T19:46:53.059Z,56.70
2019-04-25T19:49:37.055Z,56.70
2019-04-25T19:52:21.426Z,56.70
2019-04-25T19:55:00.967Z,56.70
2019-04-25T19:57:42.568Z,56.80
2019-04-25T20:00:28.837Z,56.80
2019-04-25T20:03:22.579Z,57.00
2019-04-25T20:06:11.080Z,57.10
2019-04-25T20:09:07.844Z,57.00
2019-04-25T20:11:53.876Z,57.10
2019-04-25T20:14:36.305Z,57.10
2019-04-25T20:17:22.781Z,57.10
2019-04-25T20:20:06.705Z,57.00
2019-04-25T20:22:50.208Z,57.10
2019-04-25T20:25:32.383Z,57.10
2019-04-25T20:28:14.947Z,57.10
2019-04-25T20:31:02.212Z,57.10
2019-04-25T20:33:45.399Z,57.20
2019-04-25T20:36:25.153Z,57.20
2019-04-25T20:39:07.778Z,58.00
2019-04-25T20:41:53.919Z,57.30
2019-04-25T20:44:38.532Z,57.40
2019-04-25T20:47:21.096Z,57.30
2019-04-25T20:50:04.125Z,57.40
2019-04-25T20:52:47.576Z,57.30
2019-04-25T20:55:31.518Z,57.40
2019-04-25T20:58:17.097Z,57.40
2019-04-25T21:00:58.023Z,57.40
2019-04-25T21:03:37.990Z,57.20
2019-04-25T21:06:23.915Z,57.20
2019-04-25T21:09:07.812Z,57.30
2019-04-25T21:11:53.377Z,57.30
2019-04-25T21:14:46.853Z,57.40
2019-04-25T21:17:34.663Z,57.40
2019-04-25T21:20:13.453Z,57.30
2019-04-25T21:22:55.843Z,57.50
2019-04-25T21:25:42.922Z,57.50
2019-04-25T21:28:21.419Z,57.40
2019-04-25T21:31:03.552Z,57.20
2019-04-25T21:33:47.024Z,57.20
2019-04-25T21:36:33.688Z,57.20
2019-04-25T21:39:28.791Z,57.20
2019-04-25T21:42:25.065Z,57.30
2019-04-25T21:45:06.538Z,57.40
2019-04-25T21:47:48.771Z,57.50
2019-04-25T21:50:30.686Z,57.40
2019-04-25T21:53:16.818Z,57.50
2019-04-25T21:56:01.836Z,57.50
2019-04-25T21:58:45.302Z,57.20
2019-04-25T22:01:27.595Z,57.20
2019-04-25T22:04:08.400Z,57.30
2019-04-25T22:06:56.789Z,57.40
2019-04-25T22:09:37.536Z,57.50
2019-04-25T22:12:20.573Z,57.70
2019-04-25T22:15:01.469Z,57.60
2019-04-25T22:17:44.774Z,57.70
2019-04-25T22:20:29.358Z,57.90
2019-04-25T22:23:13.047Z,57.90
2019-04-25T22:26:00.013Z,57.50
2019-04-25T22:28:45.392Z,57.70
2019-04-25T22:31:30.623Z,57.90
2019-04-25T22:34:19.022Z,58.10
2019-04-25T22:37:00.643Z,58.20
2019-04-25T22:39:43.319Z,58.30
2019-04-25T22:42:28.644Z,58.50
2019-04-25T22:45:12.615Z,58.20
2019-04-25T22:47:56.481Z,58.10
2019-04-25T22:50:37.962Z,58.00
2019-04-25T22:53:24.662Z,57.80
2019-04-25T22:56:05.328Z,57.90
2019-04-25T22:58:46.494Z,58.20
2019-04-25T23:01:45.691Z,58.40
2019-04-25T23:05:04.349Z,58.70
2019-04-25T23:07:34.899Z,58.80
2019-04-25T23:10:16.647Z,58.60
2019-04-25T23:13:00.552Z,58.60
2019-04-25T23:15:44.190Z,58.80
2019-04-25T23:18:26.257Z,58.30
2019-04-25T23:21:08.829Z,58.30
2019-04-25T23:23:53.699Z,58.50
2019-04-25T23:26:43.592Z,58.50
2019-04-25T23:29:26.821Z,58.60
2019-04-25T23:32:11.071Z,58.80
2019-04-25T23:34:56.149Z,58.70
2019-04-25T23:37:41.443Z,58.70
2019-04-25T23:40:22.257Z,58.40
2019-04-25T23:43:00.636Z,58.80
2019-04-25T23:45:46.098Z,58.20
2019-04-25T23:48:32.199Z,58.10
2019-04-25T23:51:17.711Z,58.40
2019-04-25T23:54:04.320Z,58.60
2019-04-25T23:56:48.695Z,58.90
2019-04-25T23:59:33.370Z,59.10
